Time;durP1;ratioP1;P1;durP2;ratioP2;P2;SDS_P1;SDS_P2;PMS_P1;PMS_P2;Temp;Humidity;BMP_temperature;BMP_pressure;BME280_temperature;BME280_humidity;BME280_pressure;Samples;Min_cycle;Max_cycle;Signal;HPM_P1;HPM_P2
2022/10/27 00:01:34;;;;;;;19.05;5.65;;;;;;;;;;5029264;28;20014;-71
2022/10/27 00:04:00;;;;;;;13.68;4.82;;;;;;;;;;5029658;28;20383;-71
2022/10/27 00:06:26;;;;;;;14.60;5.63;;;;;;;;;;5029522;28;20030;-71
2022/10/27 00:08:52;;;;;;;16.98;6.47;;;;;;;;;;5028614;28;20481;-71
2022/10/27 00:11:19;;;;;;;14.20;6.82;;;;;;;;;;5022641;28;20556;-71
2022/10/27 00:13:45;;;;;;;14.23;5.85;;;;;;;;;;5018743;28;20033;-72
2022/10/27 00:16:14;;;;;;;17.10;5.97;;;;;;;;;;5028828;28;20032;-71
2022/10/27 00:18:44;;;;;;;17.15;6.60;;;;;;;;;;5043899;28;20511;-72
2022/10/27 00:21:12;;;;;;;13.82;6.35;;;;;;;;;;5028706;28;20219;-71
2022/10/27 00:23:39;;;;;;;18.30;6.03;;;;;;;;;;5026763;28;20037;-72
2022/10/27 00:26:06;;;;;;;16.20;6.28;;;;;;;;;;5028922;28;20532;-73
2022/10/27 00:28:32;;;;;;;17.35;6.38;;;;;;;;;;5028501;28;20109;-71
2022/10/27 00:31:12;;;;;;;13.38;5.63;;;;;;;;;;5029021;28;20143;-71
2022/10/27 00:33:38;;;;;;;14.20;5.70;;;;;;;;;;5026461;28;20110;-72
2022/10/27 00:36:08;;;;;;;14.57;5.65;;;;;;;;;;5028463;28;20124;-71
2022/10/27 00:38:35;;;;;;;14.77;5.40;;;;;;;;;;5027587;28;20029;-71
2022/10/27 00:41:01;;;;;;;16.33;5.97;;;;;;;;;;5028626;28;20458;-72
2022/10/27 00:43:27;;;;;;;15.00;5.45;;;;;;;;;;5025330;28;20033;-72
2022/10/27 00:45:55;;;;;;;17.67;6.00;;;;;;;;;;5028538;28;20028;-71
2022/10/27 00:48:23;;;;;;;23.75;6.18;;;;;;;;;;5028136;28;20057;-71
2022/10/27 00:50:49;;;;;;;16.30;5.03;;;;;;;;;;5028574;28;20450;-72
2022/10/27 00:53:15;;;;;;;17.52;5.35;;;;;;;;;;5026671;28;20504;-71
2022/10/27 00:55:41;;;;;;;12.13;4.10;;;;;;;;;;5027882;28;20097;-72
2022/10/27 00:58:10;;;;;;;12.60;4.68;;;;;;;;;;5026445;28;20466;-71
2022/10/27 01:00:38;;;;;;;13.75;4.32;;;;;;;;;;5027979;28;20017;-70
2022/10/27 01:03:05;;;;;;;13.25;3.95;;;;;;;;;;5026722;28;20028;-71
2022/10/27 01:05:31;;;;;;;16.38;4.03;;;;;;;;;;5028276;28;20040;-72
2022/10/27 01:07:59;;;;;;;14.57;3.92;;;;;;;;;;5026401;28;20029;-71
2022/10/27 01:10:26;;;;;;;15.32;4.32;;;;;;;;;;5027779;28;20365;-71
2022/10/27 01:12:52;;;;;;;20.08;4.50;;;;;;;;;;5013683;28;20032;-72
2022/10/27 01:15:18;;;;;;;9.27;3.78;;;;;;;;;;5026324;28;20021;-72
2022/10/27 01:17:50;;;;;;;18.83;4.20;;;;;;;;;;5027463;28;20107;-71
2022/10/27 01:20:16;;;;;;;16.02;3.97;;;;;;;;;;5028091;28;20026;-72
2022/10/27 01:23:03;;;;;;;9.93;3.88;;;;;;;;;;5027911;28;20127;-71
2022/10/27 01:25:32;;;;;;;14.32;4.03;;;;;;;;;;5026823;28;20025;-71
2022/10/27 01:28:17;;;;;;;9.45;3.28;;;;;;;;;;5025956;28;20373;-72
2022/10/27 01:31:00;;;;;;;17.65;3.88;;;;;;;;;;5027994;28;20466;-72
2022/10/27 01:33:32;;;;;;;13.73;3.70;;;;;;;;;;5027418;28;20500;-71
2022/10/27 01:36:07;;;;;;;13.45;3.78;;;;;;;;;;5027392;28;20045;-73
2022/10/27 01:38:39;;;;;;;14.15;3.72;;;;;;;;;;5025942;28;20041;-73
2022/10/27 01:41:15;;;;;;;17.58;3.20;;;;;;;;;;5027404;28;20089;-72
2022/10/27 01:43:41;;;;;;;11.32;3.25;;;;;;;;;;5027208;28;20021;-72
2022/10/27 01:46:08;;;;;;;14.05;3.35;;;;;;;;;;5027882;28;20010;-72
2022/10/27 01:48:38;;;;;;;11.57;3.75;;;;;;;;;;5026698;28;20029;-71
2022/10/27 01:51:07;;;;;;;10.40;3.00;;;;;;;;;;5016434;28;20065;-72
2022/10/27 01:53:39;;;;;;;15.10;4.15;;;;;;;;;;5007466;28;20030;-72
2022/10/27 01:56:06;;;;;;;16.67;3.75;;;;;;;;;;5011267;28;20716;-72
2022/10/27 01:58:50;;;;;;;20.00;3.55;;;;;;;;;;5056167;28;20625;-71
2022/10/27 02:01:17;;;;;;;15.73;3.63;;;;;;;;;;5012968;28;20104;-71
2022/10/27 02:03:43;;;;;;;16.77;3.67;;;;;;;;;;5025465;28;20021;-71
2022/10/27 02:06:20;;;;;;;12.40;3.60;;;;;;;;;;5026695;28;20466;-71
2022/10/27 02:08:53;;;;;;;11.77;3.30;;;;;;;;;;5016077;28;20521;-72
2022/10/27 02:11:19;;;;;;;9.73;3.63;;;;;;;;;;5055771;28;20021;-73
2022/10/27 02:13:46;;;;;;;12.25;3.88;;;;;;;;;;5027133;28;20465;-71
2022/10/27 02:16:14;;;;;;;9.75;2.95;;;;;;;;;;5025191;28;20025;-72
2022/10/27 02:18:44;;;;;;;17.50;3.45;;;;;;;;;;5026754;28;20036;-71
2022/10/27 02:21:11;;;;;;;10.00;2.50;;;;;;;;;;5026826;28;20021;-72
2022/10/27 02:23:38;;;;;;;11.23;2.75;;;;;;;;;;5026532;28;20066;-71
2022/10/27 02:26:10;;;;;;;9.55;2.50;;;;;;;;;;5015422;28;20045;-71
2022/10/27 02:28:49;;;;;;;16.95;3.05;;;;;;;;;;5024257;28;20033;-73
2022/10/27 02:31:16;;;;;;;9.63;2.83;;;;;;;;;;5026802;28;20363;-71
2022/10/27 02:33:43;;;;;;;14.32;3.33;;;;;;;;;;5025188;28;20147;-72
2022/10/27 02:36:09;;;;;;;9.80;2.70;;;;;;;;;;5026262;28;20554;-71
2022/10/27 02:38:35;;;;;;;12.00;2.90;;;;;;;;;;5025167;28;20044;-71
2022/10/27 02:41:01;;;;;;;14.73;3.15;;;;;;;;;;5026357;28;20017;-72
2022/10/27 02:43:28;;;;;;;16.17;3.70;;;;;;;;;;5024935;28;20422;-71
2022/10/27 02:45:54;;;;;;;9.35;2.88;;;;;;;;;;5026653;28;20024;-72
2022/10/27 02:48:20;;;;;;;13.88;3.78;;;;;;;;;;5025148;28;20039;-72
2022/10/27 02:50:46;;;;;;;14.38;3.03;;;;;;;;;;5026255;28;20206;-72
2022/10/27 02:53:12;;;;;;;14.13;2.55;;;;;;;;;;5024940;28;20029;-70
2022/10/27 02:55:38;;;;;;;11.88;2.90;;;;;;;;;;5026412;28;20503;-71
2022/10/27 02:58:04;;;;;;;15.15;2.65;;;;;;;;;;5025220;28;20037;-71
2022/10/27 03:00:30;;;;;;;11.55;2.47;;;;;;;;;;5009942;28;20483;-72
2022/10/27 03:02:57;;;;;;;15.65;2.70;;;;;;;;;;5025115;28;20465;-70
2022/10/27 03:05:23;;;;;;;10.05;2.72;;;;;;;;;;5058111;28;20026;-72
2022/10/27 03:07:49;;;;;;;10.20;3.05;;;;;;;;;;5026331;28;20026;-72
2022/10/27 03:10:15;;;;;;;11.00;3.22;;;;;;;;;;5024381;28;20521;-72
2022/10/27 03:12:41;;;;;;;11.38;3.13;;;;;;;;;;5025566;28;20039;-73
2022/10/27 03:15:08;;;;;;;10.52;2.63;;;;;;;;;;5026190;28;20067;-70
2022/10/27 03:17:34;;;;;;;13.02;3.15;;;;;;;;;;5015572;28;20038;-70
2022/10/27 03:20:00;;;;;;;11.88;2.72;;;;;;;;;;5021118;28;20026;-71
2022/10/27 03:22:26;;;;;;;16.63;4.45;;;;;;;;;;5020874;28;20032;-72
2022/10/27 03:24:52;;;;;;;11.88;3.00;;;;;;;;;;5017875;28;20039;-71
2022/10/27 03:27:18;;;;;;;13.55;3.13;;;;;;;;;;5020688;28;20148;-72
2022/10/27 03:29:45;;;;;;;15.95;2.95;;;;;;;;;;5019773;28;20014;-71
2022/10/27 03:32:11;;;;;;;13.73;3.17;;;;;;;;;;5018980;28;20021;-71
2022/10/27 03:34:37;;;;;;;12.65;3.40;;;;;;;;;;5020905;28;20025;-71
2022/10/27 03:37:03;;;;;;;19.08;3.38;;;;;;;;;;5020855;28;20045;-71
2022/10/27 03:39:29;;;;;;;16.70;4.05;;;;;;;;;;5020801;28;20033;-74
2022/10/27 03:41:55;;;;;;;10.20;3.10;;;;;;;;;;5019042;28;20017;-72
2022/10/27 03:44:21;;;;;;;14.98;3.55;;;;;;;;;;5020926;28;20034;-71
2022/10/27 03:46:47;;;;;;;18.75;3.97;;;;;;;;;;5020958;28;20043;-73
2022/10/27 03:49:14;;;;;;;14.55;3.88;;;;;;;;;;5021027;28;20026;-71
2022/10/27 03:51:40;;;;;;;15.27;4.20;;;;;;;;;;5017321;28;20068;-71
2022/10/27 03:54:06;;;;;;;15.13;3.65;;;;;;;;;;5020629;28;20027;-71
2022/10/27 03:56:32;;;;;;;14.05;4.10;;;;;;;;;;5020383;28;20030;-72
2022/10/27 03:58:58;;;;;;;14.45;3.92;;;;;;;;;;5017429;28;20033;-71
2022/10/27 04:01:24;;;;;;;15.38;3.42;;;;;;;;;;5008748;28;20035;-70
2022/10/27 04:03:50;;;;;;;18.23;3.78;;;;;;;;;;5020702;28;20025;-72
2022/10/27 04:06:17;;;;;;;14.32;3.30;;;;;;;;;;5014985;28;20117;-72
2022/10/27 04:08:43;;;;;;;13.98;3.50;;;;;;;;;;5009137;28;20279;-71
2022/10/27 04:11:09;;;;;;;20.08;3.65;;;;;;;;;;5018912;28;20013;-71
2022/10/27 04:13:35;;;;;;;15.70;3.67;;;;;;;;;;5021038;28;20029;-71
2022/10/27 04:16:01;;;;;;;16.00;4.07;;;;;;;;;;5021894;28;20029;-71
2022/10/27 04:18:27;;;;;;;15.80;3.33;;;;;;;;;;5020890;28;20114;-72
2022/10/27 04:20:54;;;;;;;23.27;3.78;;;;;;;;;;5020036;28;20210;-71
2022/10/27 04:23:22;;;;;;;19.67;3.53;;;;;;;;;;5019588;28;20034;-71
2022/10/27 04:25:48;;;;;;;14.10;3.78;;;;;;;;;;5021228;28;20396;-71
2022/10/27 04:28:14;;;;;;;13.15;3.15;;;;;;;;;;5021268;28;20022;-71
2022/10/27 04:30:40;;;;;;;19.45;4.32;;;;;;;;;;5021032;28;20630;-71
2022/10/27 04:33:07;;;;;;;26.15;4.38;;;;;;;;;;5019820;28;20431;-71
2022/10/27 04:35:33;;;;;;;24.15;4.10;;;;;;;;;;5019340;28;20096;-71
2022/10/27 04:37:59;;;;;;;19.38;3.60;;;;;;;;;;5019606;28;20130;-71
2022/10/27 04:40:25;;;;;;;17.73;3.53;;;;;;;;;;5021326;28;20316;-72
2022/10/27 04:42:51;;;;;;;19.48;3.92;;;;;;;;;;5020808;28;20484;-70
2022/10/27 04:45:17;;;;;;;18.90;3.40;;;;;;;;;;5019612;28;20289;-73
2022/10/27 04:47:45;;;;;;;16.35;4.03;;;;;;;;;;5021086;28;20112;-72
2022/10/27 04:50:11;;;;;;;16.55;3.08;;;;;;;;;;5020919;28;20052;-72
2022/10/27 04:52:37;;;;;;;15.55;3.50;;;;;;;;;;5019899;28;20529;-71
2022/10/27 04:55:03;;;;;;;12.88;2.80;;;;;;;;;;5020543;28;20025;-71
2022/10/27 04:57:30;;;;;;;17.60;3.50;;;;;;;;;;5021078;28;20095;-71
2022/10/27 04:59:56;;;;;;;12.93;3.05;;;;;;;;;;5011084;28;20403;-72
2022/10/27 05:02:22;;;;;;;20.48;3.90;;;;;;;;;;5015395;28;20398;-73
2022/10/27 05:04:48;;;;;;;13.60;3.58;;;;;;;;;;5021518;28;20441;-70
2022/10/27 05:07:14;;;;;;;15.48;4.63;;;;;;;;;;5019465;28;20354;-71
2022/10/27 05:09:40;;;;;;;18.60;3.30;;;;;;;;;;5020420;28;20063;-74
2022/10/27 05:12:07;;;;;;;18.48;3.42;;;;;;;;;;5021411;28;20029;-72
2022/10/27 05:14:33;;;;;;;15.13;3.00;;;;;;;;;;5020321;28;20033;-72
2022/10/27 05:16:59;;;;;;;15.00;3.30;;;;;;;;;;5022613;28;20021;-72
2022/10/27 05:19:25;;;;;;;16.35;3.50;;;;;;;;;;5022809;28;20075;-71
2022/10/27 05:21:51;;;;;;;17.85;4.03;;;;;;;;;;5021932;28;20182;-72
2022/10/27 05:24:17;;;;;;;17.70;4.00;;;;;;;;;;5019888;28;20034;-72
2022/10/27 05:26:44;;;;;;;14.77;3.30;;;;;;;;;;5022231;28;20497;-72
2022/10/27 05:29:10;;;;;;;15.35;3.95;;;;;;;;;;5022489;28;20505;-72
2022/10/27 05:31:36;;;;;;;19.33;6.10;;;;;;;;;;5020254;28;20017;-71
2022/10/27 05:34:02;;;;;;;41.08;9.88;;;;;;;;;;5022200;28;20056;-72
2022/10/27 05:36:28;;;;;;;24.80;9.77;;;;;;;;;;5021676;28;20107;-71
2022/10/27 05:38:54;;;;;;;36.97;9.93;;;;;;;;;;5020765;28;20037;-76
2022/10/27 05:41:20;;;;;;;18.85;7.38;;;;;;;;;;5022201;28;20022;-75
2022/10/27 05:43:46;;;;;;;17.58;5.35;;;;;;;;;;5020051;28;20040;-73
2022/10/27 05:46:13;;;;;;;22.15;4.13;;;;;;;;;;5021643;28;20025;-72
2022/10/27 05:48:39;;;;;;;22.27;4.28;;;;;;;;;;5020561;28;20105;-73
2022/10/27 05:51:05;;;;;;;25.20;4.30;;;;;;;;;;5022161;28;20057;-72
2022/10/27 05:53:31;;;;;;;22.38;3.72;;;;;;;;;;5019774;28;20108;-72
2022/10/27 05:55:57;;;;;;;20.80;3.20;;;;;;;;;;5021977;28;20444;-71
2022/10/27 05:58:24;;;;;;;17.70;3.53;;;;;;;;;;5022093;28;20026;-71
2022/10/27 06:00:50;;;;;;;16.95;3.58;;;;;;;;;;5008370;28;20025;-71
2022/10/27 06:03:19;;;;;;;14.15;3.75;;;;;;;;;;5021538;28;20491;-70
2022/10/27 06:05:45;;;;;;;17.75;4.95;;;;;;;;;;5020157;28;20115;-72
2022/10/27 06:08:11;;;;;;;19.55;4.93;;;;;;;;;;5021975;28;20020;-71
2022/10/27 06:10:38;;;;;;;18.67;5.50;;;;;;;;;;5021167;28;20029;-72
2022/10/27 06:13:05;;;;;;;23.45;5.32;;;;;;;;;;5021550;28;20017;-72
2022/10/27 06:15:31;;;;;;;17.70;5.38;;;;;;;;;;5020361;28;20022;-72
2022/10/27 06:17:58;;;;;;;23.02;6.10;;;;;;;;;;5021815;28;20054;-72
2022/10/27 06:20:24;;;;;;;19.55;6.50;;;;;;;;;;5021440;28;20045;-72
2022/10/27 06:22:51;;;;;;;16.17;5.18;;;;;;;;;;5021293;28;20057;-72
2022/10/27 06:25:17;;;;;;;18.00;5.57;;;;;;;;;;5018452;28;20026;-72
2022/10/27 06:27:43;;;;;;;13.43;4.82;;;;;;;;;;5021383;28;20025;-71
2022/10/27 06:30:10;;;;;;;15.65;5.30;;;;;;;;;;5021748;28;20421;-72
2022/10/27 06:32:37;;;;;;;15.23;4.03;;;;;;;;;;5021965;28;20037;-72
2022/10/27 06:35:03;;;;;;;20.65;4.68;;;;;;;;;;5020556;28;20064;-72
2022/10/27 06:37:29;;;;;;;15.48;3.92;;;;;;;;;;5021131;28;20029;-72
2022/10/27 06:39:55;;;;;;;18.70;3.88;;;;;;;;;;5019440;28;20032;-72
2022/10/27 06:42:22;;;;;;;12.10;4.47;;;;;;;;;;5015441;28;20025;-73
2022/10/27 06:44:48;;;;;;;16.75;4.35;;;;;;;;;;5019656;28;20572;-72
2022/10/27 06:47:14;;;;;;;17.23;5.18;;;;;;;;;;5021112;28;20029;-72
2022/10/27 06:49:40;;;;;;;16.27;5.10;;;;;;;;;;5021395;28;20448;-71
2022/10/27 06:52:07;;;;;;;14.77;5.43;;;;;;;;;;5051384;28;20394;-72
2022/10/27 06:54:33;;;;;;;11.25;4.25;;;;;;;;;;5053125;28;20478;-72
2022/10/27 06:56:59;;;;;;;13.40;4.78;;;;;;;;;;5052733;28;20044;-72
2022/10/27 06:59:25;;;;;;;37.95;17.25;;;;;;;;;;5014827;28;20042;-72
2022/10/27 07:01:52;;;;;;;40.67;20.92;;;;;;;;;;5012953;28;20383;-71
2022/10/27 07:04:18;;;;;;;28.88;15.88;;;;;;;;;;5018059;28;20053;-71
2022/10/27 07:06:44;;;;;;;31.13;14.10;;;;;;;;;;5021473;28;20029;-71
2022/10/27 07:09:10;;;;;;;39.05;18.52;;;;;;;;;;5021273;28;20512;-72
2022/10/27 07:11:37;;;;;;;38.92;20.25;;;;;;;;;;4997297;28;20489;-72
2022/10/27 07:14:03;;;;;;;32.10;17.05;;;;;;;;;;5009108;28;20078;-72
2022/10/27 07:16:29;;;;;;;29.80;15.57;;;;;;;;;;5021213;28;20018;-73
2022/10/27 07:18:55;;;;;;;31.10;16.60;;;;;;;;;;5020888;28;20029;-71
2022/10/27 07:21:21;;;;;;;31.25;13.43;;;;;;;;;;5016512;28;20044;-72
2022/10/27 07:23:48;;;;;;;30.00;11.82;;;;;;;;;;5020947;28;20394;-72
2022/10/27 07:26:14;;;;;;;25.35;10.95;;;;;;;;;;5019367;28;20105;-72
2022/10/27 07:28:40;;;;;;;28.52;10.23;;;;;;;;;;5016802;28;20021;-72
2022/10/27 07:31:06;;;;;;;23.95;10.45;;;;;;;;;;5017732;28;20123;-72
2022/10/27 07:33:32;;;;;;;32.40;9.65;;;;;;;;;;5018199;28;20485;-71
2022/10/27 07:35:58;;;;;;;29.70;8.30;;;;;;;;;;5015555;28;20050;-72
2022/10/27 07:38:25;;;;;;;35.70;9.40;;;;;;;;;;5016862;28;20072;-72
2022/10/27 07:40:51;;;;;;;28.17;8.32;;;;;;;;;;5018817;28;20100;-72
2022/10/27 07:43:17;;;;;;;23.27;8.00;;;;;;;;;;5017970;28;20032;-72
2022/10/27 07:45:43;;;;;;;30.25;9.90;;;;;;;;;;5017680;28;20030;-71
2022/10/27 07:48:13;;;;;;;25.48;9.93;;;;;;;;;;5018238;28;20017;-74
2022/10/27 07:50:40;;;;;;;30.17;9.20;;;;;;;;;;5014875;28;20674;-71
2022/10/27 07:53:06;;;;;;;29.13;10.43;;;;;;;;;;5021090;28;20493;-72
2022/10/27 07:55:34;;;;;;;29.98;9.98;;;;;;;;;;5017661;28;20025;-71
2022/10/27 07:58:02;;;;;;;28.50;11.13;;;;;;;;;;5018511;28;20385;-72
2022/10/27 08:00:29;;;;;;;34.00;11.55;;;;;;;;;;5020754;28;20045;-71
2022/10/27 08:02:55;;;;;;;25.63;10.63;;;;;;;;;;5016162;28;20104;-71
2022/10/27 08:05:21;;;;;;;25.60;10.45;;;;;;;;;;5020063;28;20497;-72
2022/10/27 08:07:47;;;;;;;34.00;11.77;;;;;;;;;;5022361;28;20096;-71
2022/10/27 08:10:14;;;;;;;29.13;12.05;;;;;;;;;;5023216;28;20032;-72
2022/10/27 08:12:43;;;;;;;30.75;11.48;;;;;;;;;;5023223;28;20022;-71
2022/10/27 08:15:10;;;;;;;31.55;10.98;;;;;;;;;;5025319;28;20079;-71
2022/10/27 08:17:36;;;;;;;24.63;10.57;;;;;;;;;;5015730;28;20374;-72
2022/10/27 08:20:03;;;;;;;23.73;10.00;;;;;;;;;;5021784;28;20292;-71
2022/10/27 08:22:29;;;;;;;25.30;9.75;;;;;;;;;;5023194;28;20478;-73
2022/10/27 08:24:55;;;;;;;28.85;9.55;;;;;;;;;;5017821;28;20021;-72
2022/10/27 08:27:21;;;;;;;23.00;9.77;;;;;;;;;;5017096;28;20041;-74
2022/10/27 08:29:47;;;;;;;21.80;9.57;;;;;;;;;;5030696;28;20022;-72
2022/10/27 08:32:15;;;;;;;19.98;8.73;;;;;;;;;;5019844;28;20077;-73
2022/10/27 08:34:44;;;;;;;21.77;8.85;;;;;;;;;;5021289;28;20489;-73
2022/10/27 08:37:10;;;;;;;22.88;8.90;;;;;;;;;;5020831;28;20049;-72
2022/10/27 08:39:36;;;;;;;23.63;9.25;;;;;;;;;;5020573;28;20033;-72
2022/10/27 08:42:16;;;;;;;21.55;9.48;;;;;;;;;;5022028;28;20051;-72
2022/10/27 08:44:46;;;;;;;30.65;10.63;;;;;;;;;;5032922;28;20026;-72
2022/10/27 08:47:15;;;;;;;21.80;10.85;;;;;;;;;;5021998;28;20495;-72
2022/10/27 08:49:41;;;;;;;25.85;10.13;;;;;;;;;;5016228;28;20445;-72
2022/10/27 08:52:32;;;;;;;25.30;10.65;;;;;;;;;;5016110;28;20029;-73
2022/10/27 08:55:12;;;;;;;25.80;10.43;;;;;;;;;;5025697;28;21042;-73
2022/10/27 08:57:42;;;;;;;31.10;10.10;;;;;;;;;;5019644;28;20040;-72
2022/10/27 09:00:12;;;;;;;23.33;8.57;;;;;;;;;;5009356;28;20074;-72
2022/10/27 09:02:38;;;;;;;24.48;8.88;;;;;;;;;;5023027;28;20014;-72
2022/10/27 09:05:23;;;;;;;22.90;9.07;;;;;;;;;;5013474;28;20402;-73
2022/10/27 09:08:08;;;;;;;31.08;9.43;;;;;;;;;;5013027;28;20024;-73
2022/10/27 09:10:46;;;;;;;32.17;10.90;;;;;;;;;;5022547;28;20055;-72
2022/10/27 09:13:20;;;;;;;25.63;10.18;;;;;;;;;;5020700;28;20017;-72
2022/10/27 09:15:48;;;;;;;22.33;9.43;;;;;;;;;;5015896;28;20412;-72
2022/10/27 09:18:19;;;;;;;26.58;11.15;;;;;;;;;;5017012;28;20130;-72
2022/10/27 09:20:51;;;;;;;27.50;11.02;;;;;;;;;;5018371;28;20218;-72
2022/10/27 09:23:19;;;;;;;27.02;10.30;;;;;;;;;;5021060;28;20380;-73
2022/10/27 09:25:47;;;;;;;22.80;9.27;;;;;;;;;;5020846;28;20044;-73
2022/10/27 09:28:22;;;;;;;25.90;8.65;;;;;;;;;;5016477;28;20028;-74
2022/10/27 09:30:50;;;;;;;27.08;10.38;;;;;;;;;;5017314;28;20026;-74
2022/10/27 09:33:18;;;;;;;25.23;8.63;;;;;;;;;;5022791;28;20030;-74
2022/10/27 09:35:44;;;;;;;20.17;8.57;;;;;;;;;;5018968;28;20069;-71
2022/10/27 09:38:15;;;;;;;22.27;7.95;;;;;;;;;;5022445;28;20029;-72
2022/10/27 09:40:41;;;;;;;21.23;7.55;;;;;;;;;;5018836;28;20436;-72
2022/10/27 09:43:08;;;;;;;24.77;6.63;;;;;;;;;;5025469;28;20051;-72
2022/10/27 09:45:34;;;;;;;20.67;8.15;;;;;;;;;;5023743;28;20014;-71
2022/10/27 09:48:06;;;;;;;17.75;6.43;;;;;;;;;;5019283;28;20567;-72
2022/10/27 09:50:39;;;;;;;28.20;8.07;;;;;;;;;;5024758;28;20366;-72
2022/10/27 09:53:25;;;;;;;26.30;6.97;;;;;;;;;;5016844;28;20069;-71
2022/10/27 09:55:52;;;;;;;20.38;7.55;;;;;;;;;;5019526;28;20075;-72
2022/10/27 09:58:19;;;;;;;21.02;7.40;;;;;;;;;;5021034;28;20541;-71
2022/10/27 10:00:55;;;;;;;27.45;7.78;;;;;;;;;;5017098;28;20215;-71
2022/10/27 10:03:21;;;;;;;24.58;7.47;;;;;;;;;;5016893;28;20029;-71
2022/10/27 10:06:01;;;;;;;23.83;7.10;;;;;;;;;;5021555;28;20473;-72
2022/10/27 10:08:28;;;;;;;22.75;6.05;;;;;;;;;;5030247;28;20029;-72
2022/10/27 10:10:57;;;;;;;12.23;5.53;;;;;;;;;;5017387;28;20022;-72
2022/10/27 10:13:24;;;;;;;20.73;6.35;;;;;;;;;;5020165;28;20931;-72
2022/10/27 10:16:04;;;;;;;26.70;7.68;;;;;;;;;;5011615;28;20576;-72
2022/10/27 10:18:31;;;;;;;24.95;8.82;;;;;;;;;;5014043;28;20029;-71
2022/10/27 10:20:58;;;;;;;17.98;6.32;;;;;;;;;;5012449;28;20484;-71
2022/10/27 10:23:26;;;;;;;26.17;7.22;;;;;;;;;;5027001;28;20049;-72
2022/10/27 10:25:53;;;;;;;25.95;6.40;;;;;;;;;;5019676;28;20100;-71
2022/10/27 10:28:40;;;;;;;27.05;7.20;;;;;;;;;;5013418;28;20025;-72
2022/10/27 10:31:07;;;;;;;23.08;6.53;;;;;;;;;;5012042;28;20033;-72
2022/10/27 10:33:35;;;;;;;25.02;7.80;;;;;;;;;;5013383;28;20253;-72
2022/10/27 10:36:16;;;;;;;27.30;9.13;;;;;;;;;;5019056;28;20126;-71
2022/10/27 10:38:43;;;;;;;;;;;;;;;;;;5016846;28;20048;-71
2022/10/27 10:41:15;;;;;;;16.83;8.95;;;;;;;;;;5023481;28;19905;-72
2022/10/27 10:43:42;;;;;;;27.25;10.80;;;;;;;;;;5019459;28;20032;-72
2022/10/27 10:46:22;;;;;;;25.27;10.60;;;;;;;;;;5026946;28;20025;-74
2022/10/27 10:48:57;;;;;;;23.80;10.55;;;;;;;;;;5013273;28;20026;-73
2022/10/27 10:51:28;;;;;;;22.08;9.55;;;;;;;;;;5025388;28;20178;-73
2022/10/27 10:53:58;;;;;;;22.60;9.38;;;;;;;;;;5015097;28;20022;-72
2022/10/27 10:56:25;;;;;;;23.23;9.80;;;;;;;;;;5021203;28;20469;-73
2022/10/27 10:58:55;;;;;;;31.13;10.70;;;;;;;;;;5012075;28;20439;-73
2022/10/27 11:01:21;;;;;;;26.25;10.80;;;;;;;;;;5020472;28;20573;-72
2022/10/27 11:03:49;;;;;;;23.38;10.85;;;;;;;;;;5021536;28;20504;-73
2022/10/27 11:06:19;;;;;;;25.75;10.68;;;;;;;;;;5016368;28;20104;-72
2022/10/27 11:08:54;;;;;;;21.33;11.57;;;;;;;;;;5015118;28;20044;-72
2022/10/27 11:11:21;;;;;;;26.38;11.35;;;;;;;;;;5020002;28;20026;-73
2022/10/27 11:13:51;;;;;;;21.08;9.85;;;;;;;;;;5021301;28;20072;-72
2022/10/27 11:16:18;;;;;;;18.23;9.40;;;;;;;;;;5019986;28;20021;-73
2022/10/27 11:18:49;;;;;;;23.73;9.63;;;;;;;;;;5021388;28;20041;-72
2022/10/27 11:21:25;;;;;;;23.98;10.00;;;;;;;;;;5021605;28;20025;-72
2022/10/27 11:24:14;;;;;;;25.80;8.63;;;;;;;;;;5024778;28;20359;-72
2022/10/27 11:26:43;;;;;;;22.60;8.80;;;;;;;;;;5015221;28;20409;-73
2022/10/27 11:29:18;;;;;;;24.10;9.30;;;;;;;;;;5025613;28;20273;-73
2022/10/27 11:31:44;;;;;;;19.73;6.47;;;;;;;;;;5024673;28;20045;-73
2022/10/27 11:34:16;;;;;;;20.33;5.43;;;;;;;;;;5024975;28;20116;-72
2022/10/27 11:36:42;;;;;;;;;;;;;;;;;;5023537;28;20038;-72
2022/10/27 11:39:21;;;;;;;25.88;8.32;;;;;;;;;;5025118;28;19927;-72
2022/10/27 11:42:02;;;;;;;26.60;8.07;;;;;;;;;;5024291;28;20021;-72
2022/10/27 11:44:38;;;;;;;22.17;5.63;;;;;;;;;;5024639;28;20029;-71
2022/10/27 11:47:10;;;;;;;20.77;5.15;;;;;;;;;;5024159;28;20086;-71
2022/10/27 11:49:42;;;;;;;15.48;4.90;;;;;;;;;;5022267;28;20047;-73
2022/10/27 11:52:24;;;;;;;15.93;5.85;;;;;;;;;;5023185;28;20034;-73
2022/10/27 11:54:50;;;;;;;18.50;5.50;;;;;;;;;;5024461;28;20029;-74
2022/10/27 11:57:35;;;;;;;14.77;5.13;;;;;;;;;;5024090;28;20112;-73
2022/10/27 12:00:20;;;;;;;15.05;4.50;;;;;;;;;;5012883;28;20034;-74
2022/10/27 12:03:04;;;;;;;18.63;4.70;;;;;;;;;;5020238;28;20083;-73
2022/10/27 12:05:35;;;;;;;17.55;4.85;;;;;;;;;;5022085;28;20032;-73
2022/10/27 12:08:16;;;;;;;16.48;4.60;;;;;;;;;;5028240;28;20041;-72
2022/10/27 12:10:56;;;;;;;13.57;4.80;;;;;;;;;;5019877;28;20056;-74
2022/10/27 12:13:25;;;;;;;12.70;3.97;;;;;;;;;;5016282;28;20037;-73
2022/10/27 12:15:56;;;;;;;15.88;4.32;;;;;;;;;;5016957;28;20021;-73
2022/10/27 12:18:41;;;;;;;19.75;4.53;;;;;;;;;;5017543;28;20095;-73
2022/10/27 12:21:17;;;;;;;17.63;4.80;;;;;;;;;;5014028;28;20061;-72
2022/10/27 12:23:47;;;;;;;25.27;5.70;;;;;;;;;;5017842;28;20017;-74
2022/10/27 12:26:19;;;;;;;20.10;4.70;;;;;;;;;;5018284;28;20106;-73
2022/10/27 12:28:46;;;;;;;20.67;4.90;;;;;;;;;;5017776;28;20130;-74
2022/10/27 12:31:16;;;;;;;16.60;4.82;;;;;;;;;;5012999;28;20017;-73
2022/10/27 12:33:45;;;;;;;17.92;5.57;;;;;;;;;;5016682;28;20029;-73
2022/10/27 12:36:30;;;;;;;20.08;6.20;;;;;;;;;;5014635;28;20038;-74
2022/10/27 12:39:06;;;;;;;17.73;6.15;;;;;;;;;;5016049;28;20029;-75
2022/10/27 12:41:40;;;;;;;18.55;5.43;;;;;;;;;;5010065;28;20049;-73
2022/10/27 12:44:12;;;;;;;12.15;4.40;;;;;;;;;;5012259;28;20385;-73
2022/10/27 12:46:57;;;;;;;15.05;4.80;;;;;;;;;;5010375;28;20037;-73
2022/10/27 12:50:02;;;;;;;13.82;4.20;;;;;;;;;;5015131;28;20026;-72
2022/10/27 12:52:28;;;;;;;13.65;4.68;;;;;;;;;;5030920;28;20715;-73
2022/10/27 12:54:55;;;;;;;11.25;4.07;;;;;;;;;;5030927;28;20033;-72
2022/10/27 12:57:27;;;;;;;16.13;4.50;;;;;;;;;;5024823;28;20033;-72
2022/10/27 13:00:12;;;;;;;19.42;4.60;;;;;;;;;;5016428;28;20504;-72
2022/10/27 13:02:44;;;;;;;14.48;4.28;;;;;;;;;;5016018;28;20018;-73
2022/10/27 13:05:19;;;;;;;15.70;4.97;;;;;;;;;;5006958;28;20433;-73
2022/10/27 13:08:04;;;;;;;13.40;3.88;;;;;;;;;;5005209;28;20421;-73
2022/10/27 13:10:33;;;;;;;12.60;4.10;;;;;;;;;;5003933;28;20057;-72
2022/10/27 13:12:59;;;;;;;12.25;3.80;;;;;;;;;;5004416;28;20018;-72
2022/10/27 13:15:34;;;;;;;12.90;4.70;;;;;;;;;;5007975;28;20030;-72
2022/10/27 13:18:15;;;;;;;18.75;4.40;;;;;;;;;;5011272;28;20025;-72
2022/10/27 13:20:49;;;;;;;14.02;4.20;;;;;;;;;;5009978;28;20026;-72
2022/10/27 13:23:25;;;;;;;14.98;4.30;;;;;;;;;;5014532;28;20467;-72
2022/10/27 13:25:58;;;;;;;12.43;3.85;;;;;;;;;;5012607;28;20033;-73
2022/10/27 13:28:30;;;;;;;11.60;4.50;;;;;;;;;;5009653;28;20095;-72
2022/10/27 13:31:01;;;;;;;20.05;4.40;;;;;;;;;;5012797;28;20356;-72
2022/10/27 13:33:34;;;;;;;16.08;4.75;;;;;;;;;;5010026;28;20067;-72
2022/10/27 13:36:33;;;;;;;12.40;4.25;;;;;;;;;;5013263;28;20081;-72
2022/10/27 13:39:14;;;;;;;8.35;4.13;;;;;;;;;;4991812;28;20041;-72
2022/10/27 13:42:01;;;;;;;20.65;5.82;;;;;;;;;;5012261;28;20109;-74
2022/10/27 13:44:28;;;;;;;15.75;5.10;;;;;;;;;;5011184;28;20057;-72
2022/10/27 13:47:03;;;;;;;20.77;5.20;;;;;;;;;;5012991;28;20034;-72
2022/10/27 13:49:53;;;;;;;12.32;4.47;;;;;;;;;;5009408;28;20036;-71
2022/10/27 13:52:23;;;;;;;14.55;4.32;;;;;;;;;;5008026;28;20052;-72
2022/10/27 13:54:51;;;;;;;18.88;4.95;;;;;;;;;;5011546;28;20272;-71
2022/10/27 13:57:43;;;;;;;24.98;5.68;;;;;;;;;;5012868;28;20040;-72
2022/10/27 14:00:23;;;;;;;15.02;4.78;;;;;;;;;;5019000;28;20041;-73
2022/10/27 14:02:53;;;;;;;16.15;4.63;;;;;;;;;;5019751;28;20038;-71
2022/10/27 14:05:28;;;;;;;15.48;4.93;;;;;;;;;;5019859;28;20036;-74
2022/10/27 14:07:54;;;;;;;15.95;5.60;;;;;;;;;;5019667;28;20022;-72
2022/10/27 14:10:21;;;;;;;20.08;6.20;;;;;;;;;;5034845;28;20033;-73
2022/10/27 14:12:47;;;;;;;17.63;5.68;;;;;;;;;;5020427;28;20021;-72
2022/10/27 14:15:25;;;;;;;16.23;5.35;;;;;;;;;;5011680;28;20026;-73
2022/10/27 14:17:52;;;;;;;13.45;4.90;;;;;;;;;;5013705;28;20037;-72
2022/10/27 14:20:28;;;;;;;21.83;5.28;;;;;;;;;;5012091;28;20040;-72
2022/10/27 14:23:00;;;;;;;18.70;5.97;;;;;;;;;;5008958;28;20031;-72
2022/10/27 14:25:26;;;;;;;14.55;5.00;;;;;;;;;;5009444;28;20041;-72
2022/10/27 14:28:04;;;;;;;13.73;5.53;;;;;;;;;;5010931;28;20030;-72
2022/10/27 14:30:30;;;;;;;16.75;5.65;;;;;;;;;;5010273;28;20033;-72
2022/10/27 14:32:57;;;;;;;17.00;5.28;;;;;;;;;;5009044;28;20025;-72
2022/10/27 14:35:27;;;;;;;17.02;5.32;;;;;;;;;;5011936;28;20049;-73
2022/10/27 14:37:56;;;;;;;20.05;5.95;;;;;;;;;;5009557;28;20116;-74
2022/10/27 14:40:30;;;;;;;12.80;5.72;;;;;;;;;;5014789;28;20021;-73
2022/10/27 14:42:56;;;;;;;13.68;5.38;;;;;;;;;;5036975;28;20475;-74